Aérodrome :
LOGIN :

S'inscrire | Disclaimer

   EN    FR    IT 

 










Légende :    VFR   VFR Marginal   IFR   IFR Intensif   IFR Très Intensif
Visi : 
Plafond : 
>= 8 km
>= 3000ft
5 à 8 km
1000 à 3000 ft
1500m à 5 km
500 à 1000 ft
800 à 1500m
200 à 500 ft
< 800m
< 200 ft
Symboles :   Orages  Brouillard  Fortes neiges  Fortes précipitations  Vent > 20 kt
SIGMETs :   Divers  Orages  Givrage  Turbulence  Onde Orograph.  Cendres Volcan.







- Altitude de l'aérodrome : 587 ft
- Code IATA : XCR
- Voir les cartes d'approche


LFOK - Chalons Vatry

DERNIER METAR :
  • 121730Z AUTO 21007KT 9999 OVC023 03/02 Q1015 NOSIG

METARs EXPIRÉS :
  • 121700Z AUTO 20007KT 9999 BKN023 BKN029 OVC035 03/02 Q1015 NOSIG
  • 121630Z AUTO 20008KT 9999 SCT023 BKN036 OVC043 03/02 Q1014 NOSIG
  • 121600Z AUTO 20009KT 9999 BKN023 OVC044 03/02 Q1014 NOSIG
  • 121530Z AUTO 21010KT 9999 FEW024 BKN029 BKN036 03/02 Q1014 NOSIG
  • 121500Z AUTO 22010KT 9999 FEW026 BKN037 OVC046 03/02 Q1013 TEMPO 4000 SHRASN BKN013

TAF TAF LFOK
Valide du 12 à 18h jusqu'au 13 à 18h UTC


121700Z 1218/1318 21008KT 9999 BKN030
BECMG 1306/1308 3000 RADZ OVC007
PROB30
TEMPO 1308/1311 23020G30KT 1200 RASN
BECMG 1311/1313 9999 NSW
TEMPO 1313/1318 23020G30KT 2000 RADZ OVC003
Pas de NOTAMs connus pour ce terrain.



MET'MAP, la Météo Aéronautique d'un coup d'oeil ! - Copyright ORBIFLY Décembre 2007 - Disclaimer

ORBIFLY MET'MAP TEAM :

Programmation & Développement : Alexandra Zaïnal
Conception & Développement : Baudouin d'Aumeries
Co-Programmation & Développement : Marc-Olivier Méhu
Soutien technique & logistique : Manuel Goepfert

Contact : metmap@orbifly.com




SOURCES & CREDITS :

   NOAA